Terminal Aerodrome Forecast
Issued by NWS Twin Cities, MN

Home | Current Version | Previous Version | Text Only | Print | Product List | Glossary Off
Versions: 1 2 3 4 5 6 7 8 9 10 11 12 13 14 15 16 17 18 19 20 21 22 23 24 25 26 27 28

094
FTUS43 KMPX 241735
TAFMSP
TAF
KMSP 241735Z 2418/2524 36014G22KT P6SM OVC020
     FM242200 34015G23KT P6SM SCT025 OVC050
     FM250400 32012KT P6SM OVC050
     FM251500 30009KT P6SM SCT150=

USA.gov is the U.S. government's official web portal to all federal, state and local government web resources and services.